Terminal Aerodrome Forecast
Issued by NWS

Home | Current Version | Previous Version | Text Only | Print | Product List | Glossary On
Versions: 1 2 3 4 5 6 7 8 9 10 11 12 13 14 15
660
FTUS41 KBTV 231731
TAFSLK
TAF
KSLK 231731Z 2318/2418 26007KT P6SM SKC
     FM240000 VRB02KT P6SM SCT250
     FM240500 19003KT P6SM BKN070 OVC150
     FM241100 19007KT P6SM VCSH OVC045
     FM241300 20008KT 1 1/2SM -SN BR OVC015
     FM241600 20009G17KT 2SM -RASNPL BR OVC008=

USA.gov is the U.S. government's official web portal to all federal, state and local government web resources and services.